sensor_id;sensor_type;location;lat;lon;timestamp;P1;durP1;ratioP1;P2;durP2;ratioP2
60612;SDS011;46443;59.792;17.626;2023-04-06T00:01:32;6.72;;;3.20;;
60612;SDS011;46443;59.792;17.626;2023-04-06T00:03:58;4.97;;;2.55;;
60612;SDS011;46443;59.792;17.626;2023-04-06T00:06:24;5.40;;;2.67;;
60612;SDS011;46443;59.792;17.626;2023-04-06T00:08:51;5.28;;;2.72;;
60612;SDS011;46443;59.792;17.626;2023-04-06T00:11:17;7.03;;;3.40;;
60612;SDS011;46443;59.792;17.626;2023-04-06T00:13:44;5.63;;;2.88;;
60612;SDS011;46443;59.792;17.626;2023-04-06T00:16:10;4.75;;;2.70;;
60612;SDS011;46443;59.792;17.626;2023-04-06T00:18:36;6.00;;;3.15;;
60612;SDS011;46443;59.792;17.626;2023-04-06T00:21:03;4.68;;;2.40;;
60612;SDS011;46443;59.792;17.626;2023-04-06T00:23:29;4.78;;;2.97;;
60612;SDS011;46443;59.792;17.626;2023-04-06T00:25:55;5.35;;;2.60;;
60612;SDS011;46443;59.792;17.626;2023-04-06T00:28:21;4.03;;;2.22;;
60612;SDS011;46443;59.792;17.626;2023-04-06T00:30:51;5.10;;;2.60;;
60612;SDS011;46443;59.792;17.626;2023-04-06T00:33:21;4.53;;;2.83;;
60612;SDS011;46443;59.792;17.626;2023-04-06T00:35:47;5.37;;;2.90;;
60612;SDS011;46443;59.792;17.626;2023-04-06T00:38:14;5.10;;;2.58;;
60612;SDS011;46443;59.792;17.626;2023-04-06T00:40:41;3.03;;;2.20;;
60612;SDS011;46443;59.792;17.626;2023-04-06T00:43:07;4.28;;;2.22;;
60612;SDS011;46443;59.792;17.626;2023-04-06T00:45:34;3.95;;;2.40;;
60612;SDS011;46443;59.792;17.626;2023-04-06T00:48:01;5.47;;;2.78;;
60612;SDS011;46443;59.792;17.626;2023-04-06T00:50:27;5.00;;;2.22;;
60612;SDS011;46443;59.792;17.626;2023-04-06T00:52:53;5.03;;;2.95;;
60612;SDS011;46443;59.792;17.626;2023-04-06T00:55:20;6.30;;;3.25;;
60612;SDS011;46443;59.792;17.626;2023-04-06T00:57:46;4.88;;;2.75;;
60612;SDS011;46443;59.792;17.626;2023-04-06T01:00:13;4.07;;;2.72;;
60612;SDS011;46443;59.792;17.626;2023-04-06T01:02:39;5.43;;;2.83;;
60612;SDS011;46443;59.792;17.626;2023-04-06T01:05:06;4.18;;;2.20;;
60612;SDS011;46443;59.792;17.626;2023-04-06T01:07:32;5.25;;;2.45;;
60612;SDS011;46443;59.792;17.626;2023-04-06T01:09:58;4.80;;;2.28;;
60612;SDS011;46443;59.792;17.626;2023-04-06T01:12:24;4.80;;;2.30;;
60612;SDS011;46443;59.792;17.626;2023-04-06T01:14:50;6.80;;;2.90;;
60612;SDS011;46443;59.792;17.626;2023-04-06T01:17:16;6.20;;;2.90;;
60612;SDS011;46443;59.792;17.626;2023-04-06T01:19:42;4.53;;;2.60;;
60612;SDS011;46443;59.792;17.626;2023-04-06T01:22:14;6.35;;;3.13;;
60612;SDS011;46443;59.792;17.626;2023-04-06T01:24:40;4.80;;;2.42;;
60612;SDS011;46443;59.792;17.626;2023-04-06T01:27:06;4.20;;;2.35;;
60612;SDS011;46443;59.792;17.626;2023-04-06T01:29:32;5.20;;;2.83;;
60612;SDS011;46443;59.792;17.626;2023-04-06T01:31:58;6.15;;;2.80;;
60612;SDS011;46443;59.792;17.626;2023-04-06T01:34:25;4.45;;;2.60;;
60612;SDS011;46443;59.792;17.626;2023-04-06T01:36:51;5.63;;;2.95;;
60612;SDS011;46443;59.792;17.626;2023-04-06T01:39:17;5.00;;;2.75;;
60612;SDS011;46443;59.792;17.626;2023-04-06T01:41:43;4.75;;;2.67;;
60612;SDS011;46443;59.792;17.626;2023-04-06T01:44:09;5.25;;;2.88;;
60612;SDS011;46443;59.792;17.626;2023-04-06T01:46:35;4.53;;;2.65;;
60612;SDS011;46443;59.792;17.626;2023-04-06T01:49:01;4.82;;;2.47;;
60612;SDS011;46443;59.792;17.626;2023-04-06T01:51:27;5.72;;;3.10;;
60612;SDS011;46443;59.792;17.626;2023-04-06T01:53:53;4.90;;;2.50;;
60612;SDS011;46443;59.792;17.626;2023-04-06T01:56:20;5.00;;;2.83;;
60612;SDS011;46443;59.792;17.626;2023-04-06T01:58:46;4.63;;;2.75;;
60612;SDS011;46443;59.792;17.626;2023-04-06T02:01:12;5.65;;;2.95;;
60612;SDS011;46443;59.792;17.626;2023-04-06T02:03:38;5.30;;;2.63;;
60612;SDS011;46443;59.792;17.626;2023-04-06T02:06:04;5.93;;;3.13;;
60612;SDS011;46443;59.792;17.626;2023-04-06T02:08:31;4.85;;;2.70;;
60612;SDS011;46443;59.792;17.626;2023-04-06T02:10:57;4.93;;;2.65;;
60612;SDS011;46443;59.792;17.626;2023-04-06T02:13:23;5.72;;;2.85;;
60612;SDS011;46443;59.792;17.626;2023-04-06T02:15:49;5.65;;;2.80;;
60612;SDS011;46443;59.792;17.626;2023-04-06T02:18:15;4.20;;;2.45;;
60612;SDS011;46443;59.792;17.626;2023-04-06T02:20:43;5.05;;;2.30;;
60612;SDS011;46443;59.792;17.626;2023-04-06T02:23:09;4.70;;;2.40;;
60612;SDS011;46443;59.792;17.626;2023-04-06T02:25:36;5.50;;;2.63;;
60612;SDS011;46443;59.792;17.626;2023-04-06T02:28:02;4.88;;;2.47;;
60612;SDS011;46443;59.792;17.626;2023-04-06T02:30:28;4.60;;;2.83;;
60612;SDS011;46443;59.792;17.626;2023-04-06T02:32:54;5.97;;;2.70;;
60612;SDS011;46443;59.792;17.626;2023-04-06T02:35:21;5.93;;;3.20;;
60612;SDS011;46443;59.792;17.626;2023-04-06T02:37:47;5.45;;;2.95;;
60612;SDS011;46443;59.792;17.626;2023-04-06T02:40:13;6.85;;;2.90;;
60612;SDS011;46443;59.792;17.626;2023-04-06T02:42:39;8.27;;;3.35;;
60612;SDS011;46443;59.792;17.626;2023-04-06T02:45:06;6.72;;;3.08;;
60612;SDS011;46443;59.792;17.626;2023-04-06T02:47:32;6.65;;;3.28;;
60612;SDS011;46443;59.792;17.626;2023-04-06T02:49:58;6.47;;;3.00;;
60612;SDS011;46443;59.792;17.626;2023-04-06T02:52:25;6.78;;;3.35;;
60612;SDS011;46443;59.792;17.626;2023-04-06T02:54:51;6.00;;;3.00;;
60612;SDS011;46443;59.792;17.626;2023-04-06T02:57:17;6.90;;;3.33;;
60612;SDS011;46443;59.792;17.626;2023-04-06T02:59:43;6.50;;;3.17;;
60612;SDS011;46443;59.792;17.626;2023-04-06T03:02:10;6.63;;;3.10;;
60612;SDS011;46443;59.792;17.626;2023-04-06T03:04:36;7.15;;;3.35;;
60612;SDS011;46443;59.792;17.626;2023-04-06T03:07:02;8.95;;;3.35;;
60612;SDS011;46443;59.792;17.626;2023-04-06T03:09:28;7.07;;;3.47;;
60612;SDS011;46443;59.792;17.626;2023-04-06T03:11:54;6.50;;;3.22;;
60612;SDS011;46443;59.792;17.626;2023-04-06T03:14:20;8.65;;;3.80;;
60612;SDS011;46443;59.792;17.626;2023-04-06T03:16:47;7.43;;;3.63;;
60612;SDS011;46443;59.792;17.626;2023-04-06T03:19:14;8.52;;;3.58;;
60612;SDS011;46443;59.792;17.626;2023-04-06T03:21:40;8.98;;;3.40;;
60612;SDS011;46443;59.792;17.626;2023-04-06T03:24:06;7.05;;;3.15;;
60612;SDS011;46443;59.792;17.626;2023-04-06T03:26:33;7.45;;;3.35;;
60612;SDS011;46443;59.792;17.626;2023-04-06T03:28:59;8.40;;;3.80;;
60612;SDS011;46443;59.792;17.626;2023-04-06T03:31:25;8.40;;;3.40;;
60612;SDS011;46443;59.792;17.626;2023-04-06T03:33:52;6.93;;;3.80;;
60612;SDS011;46443;59.792;17.626;2023-04-06T03:36:18;8.77;;;3.20;;
60612;SDS011;46443;59.792;17.626;2023-04-06T03:38:44;6.75;;;3.40;;
60612;SDS011;46443;59.792;17.626;2023-04-06T03:41:10;7.55;;;3.63;;
60612;SDS011;46443;59.792;17.626;2023-04-06T03:43:36;8.55;;;3.63;;
60612;SDS011;46443;59.792;17.626;2023-04-06T03:46:02;7.95;;;3.80;;
60612;SDS011;46443;59.792;17.626;2023-04-06T03:48:28;6.10;;;3.22;;
60612;SDS011;46443;59.792;17.626;2023-04-06T03:50:54;6.95;;;3.53;;
60612;SDS011;46443;59.792;17.626;2023-04-06T03:53:20;6.65;;;3.20;;
60612;SDS011;46443;59.792;17.626;2023-04-06T03:55:46;7.30;;;3.47;;
60612;SDS011;46443;59.792;17.626;2023-04-06T03:58:12;7.85;;;3.78;;
60612;SDS011;46443;59.792;17.626;2023-04-06T04:00:38;5.20;;;3.13;;
60612;SDS011;46443;59.792;17.626;2023-04-06T04:03:05;7.15;;;3.03;;
60612;SDS011;46443;59.792;17.626;2023-04-06T04:05:31;5.10;;;2.83;;
60612;SDS011;46443;59.792;17.626;2023-04-06T04:07:57;5.18;;;3.00;;
60612;SDS011;46443;59.792;17.626;2023-04-06T04:10:23;6.30;;;3.10;;
60612;SDS011;46443;59.792;17.626;2023-04-06T04:12:49;7.72;;;3.15;;
60612;SDS011;46443;59.792;17.626;2023-04-06T04:15:15;9.18;;;3.78;;
60612;SDS011;46443;59.792;17.626;2023-04-06T04:17:41;7.95;;;3.72;;
60612;SDS011;46443;59.792;17.626;2023-04-06T04:20:11;6.70;;;3.45;;
60612;SDS011;46443;59.792;17.626;2023-04-06T04:22:37;6.32;;;3.00;;
60612;SDS011;46443;59.792;17.626;2023-04-06T04:25:03;6.45;;;3.08;;
60612;SDS011;46443;59.792;17.626;2023-04-06T04:27:30;7.57;;;3.63;;
60612;SDS011;46443;59.792;17.626;2023-04-06T04:29:56;7.32;;;3.88;;
60612;SDS011;46443;59.792;17.626;2023-04-06T04:32:22;6.60;;;3.67;;
60612;SDS011;46443;59.792;17.626;2023-04-06T04:34:52;6.78;;;3.25;;
60612;SDS011;46443;59.792;17.626;2023-04-06T04:37:18;6.30;;;3.20;;
60612;SDS011;46443;59.792;17.626;2023-04-06T04:39:44;7.13;;;3.42;;
60612;SDS011;46443;59.792;17.626;2023-04-06T04:42:11;7.10;;;3.38;;
60612;SDS011;46443;59.792;17.626;2023-04-06T04:44:37;5.82;;;3.00;;
60612;SDS011;46443;59.792;17.626;2023-04-06T04:47:03;8.02;;;3.13;;
60612;SDS011;46443;59.792;17.626;2023-04-06T04:49:29;5.32;;;3.05;;
60612;SDS011;46443;59.792;17.626;2023-04-06T04:51:55;6.30;;;2.95;;
60612;SDS011;46443;59.792;17.626;2023-04-06T04:54:21;4.88;;;2.97;;
60612;SDS011;46443;59.792;17.626;2023-04-06T04:56:47;5.47;;;2.90;;
60612;SDS011;46443;59.792;17.626;2023-04-06T04:59:13;5.80;;;3.13;;
60612;SDS011;46443;59.792;17.626;2023-04-06T05:01:39;7.70;;;3.15;;
60612;SDS011;46443;59.792;17.626;2023-04-06T05:04:05;5.55;;;3.08;;
60612;SDS011;46443;59.792;17.626;2023-04-06T05:06:32;6.57;;;2.90;;
60612;SDS011;46443;59.792;17.626;2023-04-06T05:08:58;7.47;;;2.95;;
60612;SDS011;46443;59.792;17.626;2023-04-06T05:11:24;5.97;;;3.22;;
60612;SDS011;46443;59.792;17.626;2023-04-06T05:13:51;6.25;;;3.17;;
60612;SDS011;46443;59.792;17.626;2023-04-06T05:16:17;6.47;;;3.13;;
60612;SDS011;46443;59.792;17.626;2023-04-06T05:18:43;4.63;;;2.75;;
60612;SDS011;46443;59.792;17.626;2023-04-06T05:21:10;4.90;;;2.38;;
60612;SDS011;46443;59.792;17.626;2023-04-06T05:23:36;7.50;;;3.10;;
60612;SDS011;46443;59.792;17.626;2023-04-06T05:26:02;4.65;;;2.58;;
60612;SDS011;46443;59.792;17.626;2023-04-06T05:28:29;4.53;;;2.60;;
60612;SDS011;46443;59.792;17.626;2023-04-06T05:30:55;5.43;;;2.92;;
60612;SDS011;46443;59.792;17.626;2023-04-06T05:33:22;4.88;;;2.88;;
60612;SDS011;46443;59.792;17.626;2023-04-06T05:35:48;6.45;;;2.97;;
60612;SDS011;46443;59.792;17.626;2023-04-06T05:38:14;5.45;;;2.80;;
60612;SDS011;46443;59.792;17.626;2023-04-06T05:40:40;4.95;;;2.60;;
60612;SDS011;46443;59.792;17.626;2023-04-06T05:43:07;5.20;;;2.78;;
60612;SDS011;46443;59.792;17.626;2023-04-06T05:45:33;5.05;;;3.17;;
60612;SDS011;46443;59.792;17.626;2023-04-06T05:48:00;4.85;;;2.85;;
60612;SDS011;46443;59.792;17.626;2023-04-06T05:50:27;5.97;;;3.15;;
60612;SDS011;46443;59.792;17.626;2023-04-06T05:52:53;5.40;;;3.42;;
60612;SDS011;46443;59.792;17.626;2023-04-06T05:55:19;5.55;;;3.20;;
60612;SDS011;46443;59.792;17.626;2023-04-06T05:57:45;6.07;;;3.15;;
60612;SDS011;46443;59.792;17.626;2023-04-06T06:00:12;6.78;;;3.65;;
60612;SDS011;46443;59.792;17.626;2023-04-06T06:02:38;5.85;;;3.28;;
60612;SDS011;46443;59.792;17.626;2023-04-06T06:05:04;7.68;;;3.80;;
60612;SDS011;46443;59.792;17.626;2023-04-06T06:07:31;8.15;;;3.63;;
60612;SDS011;46443;59.792;17.626;2023-04-06T06:09:57;7.40;;;3.72;;
60612;SDS011;46443;59.792;17.626;2023-04-06T06:12:23;9.68;;;4.20;;
60612;SDS011;46443;59.792;17.626;2023-04-06T06:14:49;8.15;;;3.47;;
60612;SDS011;46443;59.792;17.626;2023-04-06T06:17:15;10.65;;;4.63;;
60612;SDS011;46443;59.792;17.626;2023-04-06T06:19:41;8.60;;;4.28;;
60612;SDS011;46443;59.792;17.626;2023-04-06T06:22:07;9.30;;;4.57;;
60612;SDS011;46443;59.792;17.626;2023-04-06T06:24:34;9.63;;;4.30;;
60612;SDS011;46443;59.792;17.626;2023-04-06T06:27:00;7.40;;;4.03;;
60612;SDS011;46443;59.792;17.626;2023-04-06T06:29:26;10.93;;;4.32;;
60612;SDS011;46443;59.792;17.626;2023-04-06T06:31:52;7.90;;;4.28;;
60612;SDS011;46443;59.792;17.626;2023-04-06T06:34:18;8.20;;;3.88;;
60612;SDS011;46443;59.792;17.626;2023-04-06T06:36:44;11.13;;;4.10;;
60612;SDS011;46443;59.792;17.626;2023-04-06T06:39:11;8.70;;;4.15;;
60612;SDS011;46443;59.792;17.626;2023-04-06T06:41:37;9.15;;;4.30;;
60612;SDS011;46443;59.792;17.626;2023-04-06T06:44:03;9.77;;;4.63;;
60612;SDS011;46443;59.792;17.626;2023-04-06T06:46:30;9.07;;;4.57;;
60612;SDS011;46443;59.792;17.626;2023-04-06T06:48:56;9.10;;;4.57;;
60612;SDS011;46443;59.792;17.626;2023-04-06T06:51:22;8.38;;;4.35;;
60612;SDS011;46443;59.792;17.626;2023-04-06T06:53:49;11.75;;;5.38;;
60612;SDS011;46443;59.792;17.626;2023-04-06T06:56:15;10.55;;;4.07;;
60612;SDS011;46443;59.792;17.626;2023-04-06T06:58:41;10.55;;;5.05;;
60612;SDS011;46443;59.792;17.626;2023-04-06T07:01:07;10.25;;;4.53;;
60612;SDS011;46443;59.792;17.626;2023-04-06T07:03:33;10.90;;;5.35;;
60612;SDS011;46443;59.792;17.626;2023-04-06T07:05:59;10.63;;;5.22;;
60612;SDS011;46443;59.792;17.626;2023-04-06T07:08:25;10.15;;;4.85;;
60612;SDS011;46443;59.792;17.626;2023-04-06T07:10:51;9.25;;;4.93;;
60612;SDS011;46443;59.792;17.626;2023-04-06T07:13:18;11.13;;;5.13;;
60612;SDS011;46443;59.792;17.626;2023-04-06T07:15:47;10.60;;;5.03;;
60612;SDS011;46443;59.792;17.626;2023-04-06T07:18:14;9.35;;;4.45;;
60612;SDS011;46443;59.792;17.626;2023-04-06T07:20:40;7.50;;;4.38;;
60612;SDS011;46443;59.792;17.626;2023-04-06T07:23:06;7.18;;;4.20;;
60612;SDS011;46443;59.792;17.626;2023-04-06T07:25:32;7.72;;;4.20;;
60612;SDS011;46443;59.792;17.626;2023-04-06T07:27:58;7.35;;;4.25;;
60612;SDS011;46443;59.792;17.626;2023-04-06T07:30:24;9.13;;;4.40;;
60612;SDS011;46443;59.792;17.626;2023-04-06T07:32:52;7.10;;;4.10;;
60612;SDS011;46443;59.792;17.626;2023-04-06T07:35:20;9.02;;;4.40;;
60612;SDS011;46443;59.792;17.626;2023-04-06T07:37:46;7.28;;;3.97;;
60612;SDS011;46443;59.792;17.626;2023-04-06T07:40:12;6.03;;;3.33;;
60612;SDS011;46443;59.792;17.626;2023-04-06T07:42:39;6.05;;;3.30;;
60612;SDS011;46443;59.792;17.626;2023-04-06T07:45:05;6.25;;;3.20;;
60612;SDS011;46443;59.792;17.626;2023-04-06T07:47:31;5.93;;;3.40;;
60612;SDS011;46443;59.792;17.626;2023-04-06T07:49:57;6.90;;;3.50;;
60612;SDS011;46443;59.792;17.626;2023-04-06T07:52:24;5.32;;;3.25;;
60612;SDS011;46443;59.792;17.626;2023-04-06T07:54:50;6.97;;;3.20;;
60612;SDS011;46443;59.792;17.626;2023-04-06T07:57:16;5.82;;;2.95;;
60612;SDS011;46443;59.792;17.626;2023-04-06T07:59:42;4.82;;;2.83;;
60612;SDS011;46443;59.792;17.626;2023-04-06T08:02:08;6.45;;;3.60;;
60612;SDS011;46443;59.792;17.626;2023-04-06T08:04:34;6.35;;;3.00;;
60612;SDS011;46443;59.792;17.626;2023-04-06T08:07:00;5.68;;;3.38;;
60612;SDS011;46443;59.792;17.626;2023-04-06T08:09:27;4.75;;;2.78;;
60612;SDS011;46443;59.792;17.626;2023-04-06T08:11:53;4.47;;;3.08;;
60612;SDS011;46443;59.792;17.626;2023-04-06T08:14:19;5.55;;;3.10;;
60612;SDS011;46443;59.792;17.626;2023-04-06T08:16:46;5.00;;;3.03;;
60612;SDS011;46443;59.792;17.626;2023-04-06T08:19:12;5.97;;;3.17;;
60612;SDS011;46443;59.792;17.626;2023-04-06T08:21:38;5.55;;;2.60;;
60612;SDS011;46443;59.792;17.626;2023-04-06T08:24:07;4.70;;;2.85;;
60612;SDS011;46443;59.792;17.626;2023-04-06T08:26:33;4.80;;;2.83;;
60612;SDS011;46443;59.792;17.626;2023-04-06T08:28:59;4.70;;;2.87;;
60612;SDS011;46443;59.792;17.626;2023-04-06T08:31:25;4.30;;;2.80;;
60612;SDS011;46443;59.792;17.626;2023-04-06T08:33:52;4.80;;;2.90;;
60612;SDS011;46443;59.792;17.626;2023-04-06T08:36:18;5.95;;;3.28;;
60612;SDS011;46443;59.792;17.626;2023-04-06T08:38:47;5.22;;;2.78;;
60612;SDS011;46443;59.792;17.626;2023-04-06T08:41:15;5.80;;;2.80;;
60612;SDS011;46443;59.792;17.626;2023-04-06T08:43:49;4.57;;;2.90;;
60612;SDS011;46443;59.792;17.626;2023-04-06T08:46:15;4.87;;;3.00;;
60612;SDS011;46443;59.792;17.626;2023-04-06T08:48:42;5.57;;;2.70;;
60612;SDS011;46443;59.792;17.626;2023-04-06T08:51:08;5.37;;;3.10;;
60612;SDS011;46443;59.792;17.626;2023-04-06T08:53:35;5.80;;;3.10;;
60612;SDS011;46443;59.792;17.626;2023-04-06T08:56:01;4.27;;;2.37;;
60612;SDS011;46443;59.792;17.626;2023-04-06T08:58:28;3.80;;;2.30;;
60612;SDS011;46443;59.792;17.626;2023-04-06T09:00:56;2.70;;;1.90;;
60612;SDS011;46443;59.792;17.626;2023-04-06T09:03:23;3.10;;;2.03;;
60612;SDS011;46443;59.792;17.626;2023-04-06T09:05:50;2.60;;;1.77;;
60612;SDS011;46443;59.792;17.626;2023-04-06T09:08:16;3.50;;;1.87;;
60612;SDS011;46443;59.792;17.626;2023-04-06T09:10:42;3.77;;;2.20;;
60612;SDS011;46443;59.792;17.626;2023-04-06T09:13:08;2.17;;;1.63;;
60612;SDS011;46443;59.792;17.626;2023-04-06T09:15:35;2.27;;;1.60;;
60612;SDS011;46443;59.792;17.626;2023-04-06T09:18:01;2.10;;;1.50;;
60612;SDS011;46443;59.792;17.626;2023-04-06T09:20:27;3.93;;;2.00;;
60612;SDS011;46443;59.792;17.626;2023-04-06T09:22:54;3.70;;;2.23;;
60612;SDS011;46443;59.792;17.626;2023-04-06T09:25:21;3.60;;;2.20;;
60612;SDS011;46443;59.792;17.626;2023-04-06T09:28:01;2.97;;;1.90;;
60612;SDS011;46443;59.792;17.626;2023-04-06T09:32:54;2.87;;;1.70;;
60612;SDS011;46443;59.792;17.626;2023-04-06T09:35:21;3.40;;;1.87;;
60612;SDS011;46443;59.792;17.626;2023-04-06T09:37:47;2.70;;;1.70;;
60612;SDS011;46443;59.792;17.626;2023-04-06T09:40:14;2.80;;;1.80;;
60612;SDS011;46443;59.792;17.626;2023-04-06T09:42:42;2.83;;;1.90;;
60612;SDS011;46443;59.792;17.626;2023-04-06T09:45:10;3.90;;;1.97;;
60612;SDS011;46443;59.792;17.626;2023-04-06T09:47:36;2.60;;;2.00;;
60612;SDS011;46443;59.792;17.626;2023-04-06T09:50:05;2.40;;;1.90;;
60612;SDS011;46443;59.792;17.626;2023-04-06T09:52:32;3.20;;;1.80;;
60612;SDS011;46443;59.792;17.626;2023-04-06T09:55:08;3.20;;;1.93;;
60612;SDS011;46443;59.792;17.626;2023-04-06T09:57:39;3.13;;;2.40;;
60612;SDS011;46443;59.792;17.626;2023-04-06T10:00:07;3.13;;;1.97;;
60612;SDS011;46443;59.792;17.626;2023-04-06T10:07:57;3.30;;;1.80;;
60612;SDS011;46443;59.792;17.626;2023-04-06T10:10:25;2.77;;;1.80;;
60612;SDS011;46443;59.792;17.626;2023-04-06T10:12:51;3.77;;;2.17;;
60612;SDS011;46443;59.792;17.626;2023-04-06T10:15:18;2.93;;;1.90;;
60612;SDS011;46443;59.792;17.626;2023-04-06T10:17:44;3.73;;;1.80;;
60612;SDS011;46443;59.792;17.626;2023-04-06T10:20:12;4.73;;;1.80;;
60612;SDS011;46443;59.792;17.626;2023-04-06T10:22:55;2.30;;;1.70;;
60612;SDS011;46443;59.792;17.626;2023-04-06T10:25:31;2.40;;;1.73;;
60612;SDS011;46443;59.792;17.626;2023-04-06T10:28:01;2.37;;;1.50;;
60612;SDS011;46443;59.792;17.626;2023-04-06T10:30:28;2.92;;;1.85;;
60612;SDS011;46443;59.792;17.626;2023-04-06T10:32:54;2.87;;;1.97;;
60612;SDS011;46443;59.792;17.626;2023-04-06T10:35:20;2.40;;;1.60;;
60612;SDS011;46443;59.792;17.626;2023-04-06T10:37:51;3.17;;;2.00;;
60612;SDS011;46443;59.792;17.626;2023-04-06T10:40:24;3.17;;;1.80;;
60612;SDS011;46443;59.792;17.626;2023-04-06T10:42:51;4.87;;;2.30;;
60612;SDS011;46443;59.792;17.626;2023-04-06T10:45:26;3.40;;;2.00;;
60612;SDS011;46443;59.792;17.626;2023-04-06T10:47:56;4.82;;;2.38;;
60612;SDS011;46443;59.792;17.626;2023-04-06T10:50:23;4.07;;;2.40;;
60612;SDS011;46443;59.792;17.626;2023-04-06T10:53:02;5.50;;;2.40;;
60612;SDS011;46443;59.792;17.626;2023-04-06T10:55:28;4.63;;;2.30;;
60612;SDS011;46443;59.792;17.626;2023-04-06T10:57:55;3.83;;;2.43;;
60612;SDS011;46443;59.792;17.626;2023-04-06T11:00:21;6.53;;;2.67;;
60612;SDS011;46443;59.792;17.626;2023-04-06T11:02:47;3.97;;;2.30;;
60612;SDS011;46443;59.792;17.626;2023-04-06T11:05:13;3.90;;;2.60;;
60612;SDS011;46443;59.792;17.626;2023-04-06T11:07:40;4.77;;;2.23;;
60612;SDS011;46443;59.792;17.626;2023-04-06T11:10:07;4.97;;;2.40;;
60612;SDS011;46443;59.792;17.626;2023-04-06T11:12:33;3.87;;;2.30;;
60612;SDS011;46443;59.792;17.626;2023-04-06T11:15:01;4.33;;;2.67;;
60612;SDS011;46443;59.792;17.626;2023-04-06T11:19:56;4.23;;;2.27;;
60612;SDS011;46443;59.792;17.626;2023-04-06T11:22:23;4.07;;;2.40;;
60612;SDS011;46443;59.792;17.626;2023-04-06T11:24:49;5.10;;;2.47;;
60612;SDS011;46443;59.792;17.626;2023-04-06T11:27:15;3.57;;;2.33;;
60612;SDS011;46443;59.792;17.626;2023-04-06T11:29:42;4.13;;;2.20;;
60612;SDS011;46443;59.792;17.626;2023-04-06T11:32:08;4.97;;;2.83;;
60612;SDS011;46443;59.792;17.626;2023-04-06T11:34:36;5.27;;;2.67;;
60612;SDS011;46443;59.792;17.626;2023-04-06T11:37:04;4.50;;;2.57;;
60612;SDS011;46443;59.792;17.626;2023-04-06T11:39:37;3.75;;;2.35;;
60612;SDS011;46443;59.792;17.626;2023-04-06T11:42:04;5.50;;;2.60;;
60612;SDS011;46443;59.792;17.626;2023-04-06T11:44:34;4.70;;;2.57;;
60612;SDS011;46443;59.792;17.626;2023-04-06T11:49:30;4.87;;;2.60;;
60612;SDS011;46443;59.792;17.626;2023-04-06T11:51:56;5.15;;;2.30;;
60612;SDS011;46443;59.792;17.626;2023-04-06T11:54:35;4.53;;;2.63;;
60612;SDS011;46443;59.792;17.626;2023-04-06T11:57:05;3.80;;;2.45;;
60612;SDS011;46443;59.792;17.626;2023-04-06T11:59:31;3.70;;;2.27;;
60612;SDS011;46443;59.792;17.626;2023-04-06T12:01:57;3.80;;;2.20;;
60612;SDS011;46443;59.792;17.626;2023-04-06T12:04:23;3.23;;;2.13;;
60612;SDS011;46443;59.792;17.626;2023-04-06T12:06:50;3.60;;;2.27;;
60612;SDS011;46443;59.792;17.626;2023-04-06T12:09:16;4.80;;;2.50;;
60612;SDS011;46443;59.792;17.626;2023-04-06T12:11:43;3.90;;;2.43;;
60612;SDS011;46443;59.792;17.626;2023-04-06T12:14:09;3.83;;;2.43;;
60612;SDS011;46443;59.792;17.626;2023-04-06T12:16:35;4.07;;;2.50;;
60612;SDS011;46443;59.792;17.626;2023-04-06T12:19:01;4.03;;;2.13;;
60612;SDS011;46443;59.792;17.626;2023-04-06T12:21:27;4.07;;;2.20;;
60612;SDS011;46443;59.792;17.626;2023-04-06T12:23:55;3.57;;;2.37;;
60612;SDS011;46443;59.792;17.626;2023-04-06T12:26:21;3.47;;;2.30;;
60612;SDS011;46443;59.792;17.626;2023-04-06T12:28:48;3.40;;;2.20;;
60612;SDS011;46443;59.792;17.626;2023-04-06T12:31:14;3.97;;;2.40;;
60612;SDS011;46443;59.792;17.626;2023-04-06T12:33:41;3.37;;;2.17;;
60612;SDS011;46443;59.792;17.626;2023-04-06T12:36:16;2.83;;;2.17;;
60612;SDS011;46443;59.792;17.626;2023-04-06T12:38:49;4.73;;;2.20;;
60612;SDS011;46443;59.792;17.626;2023-04-06T12:41:18;3.93;;;2.27;;
60612;SDS011;46443;59.792;17.626;2023-04-06T12:43:45;3.70;;;2.27;;
60612;SDS011;46443;59.792;17.626;2023-04-06T12:46:11;4.20;;;2.60;;
60612;SDS011;46443;59.792;17.626;2023-04-06T12:48:37;4.37;;;2.40;;
60612;SDS011;46443;59.792;17.626;2023-04-06T12:51:04;3.03;;;2.00;;
60612;SDS011;46443;59.792;17.626;2023-04-06T12:53:30;3.73;;;2.37;;
60612;SDS011;46443;59.792;17.626;2023-04-06T12:55:57;3.47;;;2.07;;
60612;SDS011;46443;59.792;17.626;2023-04-06T12:58:23;3.27;;;2.30;;
60612;SDS011;46443;59.792;17.626;2023-04-06T13:00:51;4.40;;;2.40;;
60612;SDS011;46443;59.792;17.626;2023-04-06T13:03:18;4.20;;;2.20;;
60612;SDS011;46443;59.792;17.626;2023-04-06T13:05:44;4.20;;;2.33;;
60612;SDS011;46443;59.792;17.626;2023-04-06T13:08:11;2.80;;;2.00;;
60612;SDS011;46443;59.792;17.626;2023-04-06T13:10:42;4.27;;;2.23;;
60612;SDS011;46443;59.792;17.626;2023-04-06T13:13:08;3.47;;;2.13;;
60612;SDS011;46443;59.792;17.626;2023-04-06T13:15:35;5.03;;;2.50;;
60612;SDS011;46443;59.792;17.626;2023-04-06T13:18:02;3.57;;;2.30;;
60612;SDS011;46443;59.792;17.626;2023-04-06T13:20:28;3.63;;;2.50;;
60612;SDS011;46443;59.792;17.626;2023-04-06T13:22:55;3.90;;;2.10;;
60612;SDS011;46443;59.792;17.626;2023-04-06T13:25:21;3.57;;;2.10;;
60612;SDS011;46443;59.792;17.626;2023-04-06T13:27:47;4.13;;;2.20;;
60612;SDS011;46443;59.792;17.626;2023-04-06T13:30:14;3.63;;;2.40;;
60612;SDS011;46443;59.792;17.626;2023-04-06T13:32:41;3.13;;;2.10;;
60612;SDS011;46443;59.792;17.626;2023-04-06T13:35:07;3.87;;;2.37;;
60612;SDS011;46443;59.792;17.626;2023-04-06T13:37:33;3.33;;;2.23;;
60612;SDS011;46443;59.792;17.626;2023-04-06T13:40:01;5.00;;;2.33;;
60612;SDS011;46443;59.792;17.626;2023-04-06T13:42:27;4.20;;;2.20;;
60612;SDS011;46443;59.792;17.626;2023-04-06T13:44:53;3.97;;;2.00;;
60612;SDS011;46443;59.792;17.626;2023-04-06T13:47:19;3.50;;;2.20;;
60612;SDS011;46443;59.792;17.626;2023-04-06T13:49:51;4.40;;;2.43;;
60612;SDS011;46443;59.792;17.626;2023-04-06T13:52:18;3.70;;;1.90;;
60612;SDS011;46443;59.792;17.626;2023-04-06T13:54:44;3.50;;;2.10;;
60612;SDS011;46443;59.792;17.626;2023-04-06T13:57:10;3.33;;;2.10;;
60612;SDS011;46443;59.792;17.626;2023-04-06T13:59:37;3.17;;;2.03;;
60612;SDS011;46443;59.792;17.626;2023-04-06T14:02:05;2.77;;;2.07;;
60612;SDS011;46443;59.792;17.626;2023-04-06T14:04:31;4.97;;;2.50;;
60612;SDS011;46443;59.792;17.626;2023-04-06T14:06:58;5.77;;;2.50;;
60612;SDS011;46443;59.792;17.626;2023-04-06T14:09:25;4.50;;;2.40;;
60612;SDS011;46443;59.792;17.626;2023-04-06T14:11:51;4.50;;;2.50;;
60612;SDS011;46443;59.792;17.626;2023-04-06T14:14:17;5.00;;;2.50;;
60612;SDS011;46443;59.792;17.626;2023-04-06T14:16:43;3.60;;;2.20;;
60612;SDS011;46443;59.792;17.626;2023-04-06T14:19:10;3.90;;;2.30;;
60612;SDS011;46443;59.792;17.626;2023-04-06T14:21:39;4.67;;;2.50;;
60612;SDS011;46443;59.792;17.626;2023-04-06T14:24:06;4.67;;;2.90;;
60612;SDS011;46443;59.792;17.626;2023-04-06T14:26:33;4.57;;;2.27;;
60612;SDS011;46443;59.792;17.626;2023-04-06T14:28:59;4.03;;;2.40;;
60612;SDS011;46443;59.792;17.626;2023-04-06T14:31:26;5.17;;;2.50;;
60612;SDS011;46443;59.792;17.626;2023-04-06T14:33:52;4.53;;;2.70;;
60612;SDS011;46443;59.792;17.626;2023-04-06T14:36:18;3.97;;;2.20;;
60612;SDS011;46443;59.792;17.626;2023-04-06T14:38:44;3.87;;;2.37;;
60612;SDS011;46443;59.792;17.626;2023-04-06T14:41:16;4.73;;;2.50;;
60612;SDS011;46443;59.792;17.626;2023-04-06T14:43:43;4.60;;;2.83;;